Time;durP1;ratioP1;P1;durP2;ratioP2;P2;SDS_P1;SDS_P2;PMS_P1;PMS_P2;Temp;Humidity;BMP_temperature;BMP_pressure;BME280_temperature;BME280_humidity;BME280_pressure;Samples;Min_cycle;Max_cycle;Signal;HPM_P1;HPM_P2
2023/07/11 00:01:14;;;;;;;;;;;;;;;30.76;40.69;94617.91;4893098;29;7601;-64
2023/07/11 00:04:10;;;;;;;;;;;;;;;30.77;39.92;94619.41;4894818;29;7454;-61
2023/07/11 00:07:11;;;;;;;;;;;;;;;30.76;41.03;94617.91;4906113;29;7460;-61
2023/07/11 00:09:40;;;;;;;;;;;;;;;30.73;40.33;94614.19;4907586;29;7068;-61
2023/07/11 00:12:07;;;;;;;;;;;;;;;30.73;40.00;94619.00;4896843;29;7670;-61
2023/07/11 00:14:50;;;;;;;;;;;;;;;30.72;40.39;94617.50;4909532;29;7248;-61
2023/07/11 00:17:33;;;;;;;;;;;;;;;30.70;40.10;94628.41;4891530;29;7124;-61
2023/07/11 00:20:04;;;;;;;;;;;;;;;30.68;39.97;94622.63;4895312;29;7327;-61
2023/07/11 00:22:49;;;;;;;;;;;;;;;30.72;40.23;94631.38;4907828;29;7350;-61
2023/07/11 00:25:25;;;;;;;;;;;;;;;30.67;39.84;94621.16;4905806;29;8945;-61
2023/07/11 00:28:04;;;;;;;;;;;;;;;30.67;40.69;94618.38;4897240;29;7202;-61
2023/07/11 00:30:51;;;;;;;;;;;;;;;30.67;40.38;94618.38;4890314;29;9060;-61
2023/07/11 00:33:31;;;;;;;;;;;;;;;30.66;40.37;94608.56;4907144;29;7339;-61
2023/07/11 00:35:57;;;;;;;;;;;;;;;30.66;40.41;94625.97;4891325;29;7230;-61
2023/07/11 00:38:24;;;;;;;;;;;;;;;30.64;40.56;94608.34;4907403;29;7332;-61
2023/07/11 00:41:06;;;;;;;;;;;;;;;30.65;40.37;94615.38;4904833;29;6977;-61
2023/07/11 00:43:43;;;;;;;;;;;;;;;30.62;40.46;94605.38;4953808;28;7133;-61
2023/07/11 00:46:30;;;;;;;;;;;;;;;30.65;39.96;94607.06;4968934;28;7469;-61
2023/07/11 00:49:15;;;;;;;;;;;;;;;30.63;40.70;94615.16;4966690;28;7173;-61
2023/07/11 00:51:58;;;;;;;;;;;;;;;30.61;40.66;94601.84;5002124;28;8998;-61
2023/07/11 00:54:37;;;;;;;;;;;;;;;30.61;40.51;94601.09;4967609;28;6984;-61
2023/07/11 00:57:23;;;;;;;;;;;;;;;30.61;39.74;94595.53;4984529;28;7285;-60
2023/07/11 01:00:06;;;;;;;;;;;;;;;30.59;40.60;94587.00;5001132;28;7238;-61
2023/07/11 01:02:34;;;;;;;;;;;;;;;30.59;40.41;94584.22;4983160;28;7163;-61
2023/07/11 01:05:01;;;;;;;;;;;;;;;30.59;39.83;94587.00;4976212;28;7604;-61
2023/07/11 01:07:39;;;;;;;;;;;;;;;30.56;39.96;94586.03;4984859;28;7494;-61
2023/07/11 01:10:08;;;;;;;;;;;;;;;30.55;40.05;94587.34;4984974;28;7247;-60
2023/07/11 01:13:13;;;;;;;;;;;;;;;30.56;40.46;94585.31;4985494;28;7391;-61
2023/07/11 01:15:49;;;;;;;;;;;;;;;30.52;40.18;94572.50;4917786;29;7213;-57
2023/07/11 01:18:26;;;;;;;;;;;;;;;30.53;39.93;94579.56;4934134;29;9076;-56
2023/07/11 01:20:53;;;;;;;;;;;;;;;30.54;39.75;94571.97;4934229;29;8427;-57
2023/07/11 01:23:31;;;;;;;;;;;;;;;30.53;39.91;94576.03;4934993;29;7236;-57
2023/07/11 01:26:16;;;;;;;;;;;;;;;30.51;40.22;94576.56;4910383;29;7220;-56
2023/07/11 01:28:50;;;;;;;;;;;;;;;30.50;40.05;94574.31;4932439;29;7086;-56
2023/07/11 01:31:27;;;;;;;;;;;;;;;30.49;39.87;94567.31;4933428;29;9382;-56
2023/07/11 01:34:22;;;;;;;;;;;;;;;30.51;40.63;94565.44;4934394;29;9558;-56
2023/07/11 01:36:59;;;;;;;;;;;;;;;30.48;40.24;94560.25;4933606;29;8514;-56
2023/07/11 01:39:34;;;;;;;;;;;;;;;30.48;39.92;94563.78;4935827;28;9084;-57
2023/07/11 01:42:09;;;;;;;;;;;;;;;30.48;40.15;94555.44;4934809;29;7086;-56
2023/07/11 01:44:37;;;;;;;;;;;;;;;30.47;39.92;94553.22;4911594;29;9488;-56
2023/07/11 01:47:06;;;;;;;;;;;;;;;30.46;39.65;94546.16;4954717;28;9378;-56
2023/07/11 01:50:00;;;;;;;;;;;;;;;30.46;39.76;94548.94;4987166;28;7271;-56
2023/07/11 01:53:02;;;;;;;;;;;;;;;30.42;39.36;94540.97;4983922;28;7352;-56
2023/07/11 01:56:06;;;;;;;;;;;;;;;30.42;40.43;94538.19;4955324;28;9791;-56
2023/07/11 01:58:35;;;;;;;;;;;;;;;30.40;40.14;94532.44;4953661;28;7121;-57
2023/07/11 02:01:04;;;;;;;;;;;;;;;30.41;39.70;94527.59;4960369;28;7425;-57
2023/07/11 02:03:51;;;;;;;;;;;;;;;30.41;39.54;94528.34;4962193;28;7236;-56
2023/07/11 02:06:17;;;;;;;;;;;;;;;30.39;40.48;94519.06;4955778;28;7231;-57
2023/07/11 02:09:13;;;;;;;;;;;;;;;30.40;39.95;94526.88;4965284;28;6993;-57
2023/07/11 02:11:48;;;;;;;;;;;;;;;30.37;39.55;94516.09;4942194;28;7242;-57
2023/07/11 02:14:21;;;;;;;;;;;;;;;30.35;40.47;94521.44;4956195;28;10094;-57
2023/07/11 02:16:50;;;;;;;;;;;;;;;30.34;40.19;94520.69;4933405;28;7730;-56
2023/07/11 02:19:19;;;;;;;;;;;;;;;30.32;40.44;94512.16;4947623;28;6992;-57
2023/07/11 02:22:00;;;;;;;;;;;;;;;30.32;40.03;94511.44;4963724;28;7395;-57
2023/07/11 02:24:36;;;;;;;;;;;;;;;30.30;40.56;94503.59;4937405;28;7079;-60
2023/07/11 02:27:03;;;;;;;;;;;;;;;30.31;40.34;94502.34;4956466;28;7298;-61
2023/07/11 02:29:29;;;;;;;;;;;;;;;30.29;40.10;94499.34;4949459;28;7384;-61
2023/07/11 02:32:29;;;;;;;;;;;;;;;30.30;39.28;94500.81;4960948;28;7201;-61
2023/07/11 02:35:30;;;;;;;;;;;;;;;30.29;39.95;94498.59;4962075;28;8833;-60
2023/07/11 02:37:57;;;;;;;;;;;;;;;30.26;39.82;94497.63;4924516;29;7560;-61
2023/07/11 02:40:37;;;;;;;;;;;;;;;30.25;39.64;94493.38;4922795;29;8193;-61
2023/07/11 02:43:07;;;;;;;;;;;;;;;30.29;40.09;94504.16;4927899;28;7166;-61
2023/07/11 02:45:33;;;;;;;;;;;;;;;30.23;39.87;94490.38;4932145;28;7079;-61
2023/07/11 02:48:01;;;;;;;;;;;;;;;30.27;40.26;94495.63;4932607;28;7209;-61
2023/07/11 02:50:36;;;;;;;;;;;;;;;30.24;39.48;94478.00;4935951;28;7270;-60
2023/07/11 02:53:06;;;;;;;;;;;;;;;30.25;39.85;94493.38;4927533;28;9554;-60
2023/07/11 02:55:38;;;;;;;;;;;;;;;30.24;39.63;94493.91;4951684;28;7295;-61
2023/07/11 02:58:17;;;;;;;;;;;;;;;30.24;39.45;94486.34;4942795;28;7212;-61
2023/07/11 03:00:51;;;;;;;;;;;;;;;30.21;39.94;94486.69;4943890;28;7077;-61
2023/07/11 03:03:19;;;;;;;;;;;;;;;30.23;39.78;94490.38;4948223;28;9218;-61
2023/07/11 03:05:49;;;;;;;;;;;;;;;30.22;40.08;94494.47;4930728;29;7266;-61
2023/07/11 03:08:16;;;;;;;;;;;;;;;30.20;39.48;94487.94;4947459;28;7236;-61
2023/07/11 03:10:45;;;;;;;;;;;;;;;30.21;40.03;94490.19;4930705;29;9137;-61
2023/07/11 03:13:15;;;;;;;;;;;;;;;30.20;39.91;94485.94;4957848;28;7088;-61
2023/07/11 03:15:41;;;;;;;;;;;;;;;30.18;39.82;94485.72;4961170;28;9460;-61
2023/07/11 03:18:13;;;;;;;;;;;;;;;30.18;40.26;94471.84;4978126;28;7173;-60
2023/07/11 03:20:42;;;;;;;;;;;;;;;30.15;39.90;94477.72;4972347;28;7316;-61
2023/07/11 03:23:15;;;;;;;;;;;;;;;30.17;40.34;94480.69;4985869;28;7053;-61
2023/07/11 03:25:46;;;;;;;;;;;;;;;30.17;40.08;94475.16;4966766;28;7400;-61
2023/07/11 03:28:14;;;;;;;;;;;;;;;30.16;39.59;94477.19;4994839;28;6976;-60
2023/07/11 03:30:42;;;;;;;;;;;;;;;30.16;39.60;94477.19;4962165;28;7265;-61
2023/07/11 03:33:10;;;;;;;;;;;;;;;30.17;39.79;94472.38;4978107;28;7407;-61
2023/07/11 03:35:37;;;;;;;;;;;;;;;30.16;39.68;94476.44;4978603;28;8823;-64
2023/07/11 03:38:34;;;;;;;;;;;;;;;30.14;39.28;94477.00;4964451;28;7343;-64
2023/07/11 03:41:14;;;;;;;;;;;;;;;30.10;39.32;94478.59;4979459;28;8801;-63
2023/07/11 03:43:40;;;;;;;;;;;;;;;30.12;40.15;94473.28;4973407;28;9029;-63
2023/07/11 03:46:08;;;;;;;;;;;;;;;30.09;39.77;94468.78;5001893;28;7357;-64
2023/07/11 03:48:44;;;;;;;;;;;;;;;30.08;40.28;94470.81;4972907;28;9438;-64
2023/07/11 03:51:15;;;;;;;;;;;;;;;30.07;40.19;94477.66;4982914;28;7250;-63
2023/07/11 03:53:41;;;;;;;;;;;;;;;30.05;39.25;94469.13;4990405;28;6980;-64
2023/07/11 03:56:16;;;;;;;;;;;;;;;30.10;39.47;94467.50;4970555;28;6996;-64
2023/07/11 03:58:43;;;;;;;;;;;;;;;30.07;40.04;94471.34;4988157;28;9117;-64
2023/07/11 04:01:18;;;;;;;;;;;;;;;30.07;40.40;94466.56;4984781;28;8718;-64
2023/07/11 04:03:52;;;;;;;;;;;;;;;30.04;39.45;94461.31;4984738;28;7217;-64
2023/07/11 04:06:22;;;;;;;;;;;;;;;30.03;40.03;94465.41;5001936;28;7266;-64
2023/07/11 04:08:53;;;;;;;;;;;;;;;30.01;39.75;94456.88;4984960;28;7258;-64
2023/07/11 04:11:21;;;;;;;;;;;;;;;30.03;40.15;94459.84;4982979;28;7244;-64
2023/07/11 04:13:50;;;;;;;;;;;;;;;30.01;40.03;94460.41;4986545;28;9146;-63
2023/07/11 04:16:17;;;;;;;;;;;;;;;30.02;40.03;94456.31;4970780;28;7325;-64
2023/07/11 04:19:13;;;;;;;;;;;;;;;30.01;40.04;94457.63;4971354;28;8736;-63
2023/07/11 04:21:40;;;;;;;;;;;;;;;30.01;39.51;94454.84;4985698;28;7011;-62
2023/07/11 04:24:15;;;;;;;;;;;;;;;30.00;39.68;94455.38;4989733;28;8745;-62
2023/07/11 04:26:52;;;;;;;;;;;;;;;29.99;40.13;94462.97;4988547;28;7286;-62
2023/07/11 04:29:20;;;;;;;;;;;;;;;29.98;39.12;94458.69;4989218;28;7215;-63
2023/07/11 04:31:46;;;;;;;;;;;;;;;30.00;40.23;94458.91;4988167;28;9023;-62
2023/07/11 04:34:22;;;;;;;;;;;;;;;29.98;39.60;94458.69;5005693;28;6980;-62
2023/07/11 04:37:28;;;;;;;;;;;;;;;30.03;40.73;94463.38;4968124;28;7222;-62
2023/07/11 04:40:06;;;;;;;;;;;;;;;30.02;40.05;94459.09;4985503;28;7230;-62
2023/07/11 04:42:42;;;;;;;;;;;;;;;30.00;39.62;94455.38;4985888;28;7265;-63
2023/07/11 04:45:29;;;;;;;;;;;;;;;29.99;40.58;94459.44;4998057;28;6979;-56
2023/07/11 04:48:03;;;;;;;;;;;;;;;30.00;39.92;94456.13;4971103;28;7268;-56
2023/07/11 04:50:29;;;;;;;;;;;;;;;29.98;40.31;94450.38;4987676;28;7240;-57
2023/07/11 04:53:03;;;;;;;;;;;;;;;30.00;40.22;94452.59;4985893;28;7287;-57
2023/07/11 04:55:29;;;;;;;;;;;;;;;30.01;40.63;94446.53;4971376;28;8327;-56
2023/07/11 04:57:58;;;;;;;;;;;;;;;30.00;41.29;94447.06;5000929;28;7352;-57
2023/07/11 05:00:29;;;;;;;;;;;;;;;30.00;40.36;94450.56;4968949;28;7326;-56
2023/07/11 05:03:07;;;;;;;;;;;;;;;30.03;41.56;94455.06;4999661;28;7270;-57
2023/07/11 05:05:35;;;;;;;;;;;;;;;30.03;40.43;94441.19;4968847;28;7951;-57
2023/07/11 05:08:09;;;;;;;;;;;;;;;30.07;40.77;94446.38;4968019;28;7523;-56
2023/07/11 05:10:35;;;;;;;;;;;;;;;30.04;40.68;94439.13;4970155;28;7324;-56
2023/07/11 05:13:09;;;;;;;;;;;;;;;30.06;42.04;94442.88;4983618;28;7316;-57
2023/07/11 05:15:36;;;;;;;;;;;;;;;30.05;40.86;94441.38;4984066;28;7230;-56
2023/07/11 05:18:30;;;;;;;;;;;;;;;30.05;41.26;94438.63;4968530;28;7120;-57
2023/07/11 05:20:58;;;;;;;;;;;;;;;30.06;42.43;94445.63;4914870;29;9524;-57
2023/07/11 05:23:32;;;;;;;;;;;;;;;30.05;41.62;94444.16;4929093;29;7259;-57
2023/07/11 05:26:04;;;;;;;;;;;;;;;30.05;42.41;94444.16;4897509;29;8478;-57
2023/07/11 05:28:30;;;;;;;;;;;;;;;30.07;40.99;94449.16;4928798;29;9263;-56
2023/07/11 05:30:56;;;;;;;;;;;;;;;30.06;41.67;94447.69;4898501;29;9182;-57
2023/07/11 05:33:23;;;;;;;;;;;;;;;30.08;41.05;94445.84;4914429;29;7315;-57
2023/07/11 05:36:31;;;;;;;;;;;;;;;30.08;41.82;94445.84;4912622;29;7753;-57
2023/07/11 05:39:10;;;;;;;;;;;;;;;30.08;42.56;94437.53;4894267;29;9032;-57
2023/07/11 05:41:45;;;;;;;;;;;;;;;30.05;41.54;94435.09;4911326;29;7883;-57
2023/07/11 05:44:23;;;;;;;;;;;;;;;30.05;41.47;94430.28;4913562;29;7274;-57
2023/07/11 05:46:51;;;;;;;;;;;;;;;30.02;41.48;94431.38;4899241;29;9354;-57
2023/07/11 05:49:16;;;;;;;;;;;;;;;29.93;42.14;94420.00;4897127;29;9073;-57
2023/07/11 05:51:58;;;;;;;;;;;;;;;30.00;42.33;94427.63;4913812;29;7548;-57
2023/07/11 05:54:26;;;;;;;;;;;;;;;30.00;42.48;94428.38;4896377;29;8893;-62
2023/07/11 05:56:56;;;;;;;;;;;;;;;30.01;41.71;94421.56;4917750;28;7268;-62
2023/07/11 05:59:23;;;;;;;;;;;;;;;30.04;42.50;94416.94;4942171;28;7273;-62
2023/07/11 06:01:50;;;;;;;;;;;;;;;30.04;42.64;94425.25;4959880;28;7215;-62
2023/07/11 06:04:18;;;;;;;;;;;;;;;30.04;42.63;94422.50;4958037;28;7413;-62
2023/07/11 06:06:49;;;;;;;;;;;;;;;30.06;42.60;94420.69;4942766;28;8855;-62
2023/07/11 06:09:18;;;;;;;;;;;;;;;30.06;43.72;94428.28;4959398;28;7274;-64
2023/07/11 06:12:00;;;;;;;;;;;;;;;30.03;43.40;94423.78;4952195;28;9481;-63
2023/07/11 06:14:28;;;;;;;;;;;;;;;30.03;44.15;94427.31;4999796;28;9109;-63
2023/07/11 06:17:01;;;;;;;;;;;;;;;30.07;42.95;94432.53;4966697;28;7286;-64
2023/07/11 06:19:33;;;;;;;;;;;;;;;30.06;43.27;94415.13;4968674;28;9051;-64
2023/07/11 06:22:10;;;;;;;;;;;;;;;30.07;43.82;94416.63;4985599;28;7255;-63
2023/07/11 06:24:43;;;;;;;;;;;;;;;30.11;43.45;94421.84;4999355;28;7200;-63
2023/07/11 06:27:13;;;;;;;;;;;;;;;30.11;42.96;94421.84;4988492;28;9105;-64
2023/07/11 06:29:39;;;;;;;;;;;;;;;30.13;44.12;94414.47;4963862;28;9043;-64
2023/07/11 06:32:09;;;;;;;;;;;;;;;30.14;43.00;94417.97;4982633;28;7115;-63
2023/07/11 06:34:36;;;;;;;;;;;;;;;30.13;43.35;94414.47;4985826;28;9063;-64
2023/07/11 06:37:32;;;;;;;;;;;;;;;30.15;43.82;94414.66;4986441;28;9031;-65
2023/07/11 06:40:28;;;;;;;;;;;;;;;30.15;43.38;94413.91;4983173;28;7457;-65
2023/07/11 06:43:13;;;;;;;;;;;;;;;30.16;43.69;94407.84;4951165;28;8302;-64
2023/07/11 06:45:41;;;;;;;;;;;;;;;30.16;43.76;94412.63;4968626;28;7275;-64
2023/07/11 06:48:39;;;;;;;;;;;;;;;30.17;43.00;94419.66;4969092;28;7184;-65
2023/07/11 06:51:23;;;;;;;;;;;;;;;30.14;43.62;94413.19;4885932;29;8756;-64
2023/07/11 06:53:51;;;;;;;;;;;;;;;30.15;43.27;94420.22;4887950;29;7306;-64
2023/07/11 06:56:22;;;;;;;;;;;;;;;30.15;43.57;94411.13;4895934;29;8890;-64
2023/07/11 06:58:49;;;;;;;;;;;;;;;30.16;43.59;94418.19;4877917;29;9241;-64
2023/07/11 07:01:26;;;;;;;;;;;;;;;30.18;43.11;94419.13;4903016;29;9038;-64
2023/07/11 07:04:05;;;;;;;;;;;;;;;30.17;42.62;94416.88;4906765;29;9311;-57
2023/07/11 07:06:41;;;;;;;;;;;;;;;30.17;43.60;94417.63;4901768;29;9187;-57
2023/07/11 07:09:07;;;;;;;;;;;;;;;30.17;43.00;94408.56;4887440;29;6971;-57
2023/07/11 07:11:42;;;;;;;;;;;;;;;30.16;42.74;94416.16;4903197;29;7030;-57
2023/07/11 07:14:19;;;;;;;;;;;;;;;30.16;42.48;94409.88;4892686;29;9557;-57
2023/07/11 07:16:46;;;;;;;;;;;;;;;30.16;42.34;94412.63;4896128;29;7255;-58
2023/07/11 07:19:12;;;;;;;;;;;;;;;30.18;42.25;94410.81;4895937;29;7353;-57
2023/07/11 07:21:47;;;;;;;;;;;;;;;30.18;43.16;94404.53;4908615;29;8685;-57
2023/07/11 07:24:29;;;;;;;;;;;;;;;30.17;42.60;94409.31;4921028;29;7182;-57
2023/07/11 07:26:59;;;;;;;;;;;;;;;30.18;42.11;94404.53;4925622;28;9057;-57
2023/07/11 07:29:27;;;;;;;;;;;;;;;30.20;42.83;94408.25;4965329;28;8827;-57
2023/07/11 07:32:00;;;;;;;;;;;;;;;30.17;42.86;94406.53;4968530;28;7531;-57
2023/07/11 07:34:48;;;;;;;;;;;;;;;30.20;43.37;94413.78;4995997;28;7338;-58
2023/07/11 07:37:51;;;;;;;;;;;;;;;30.20;42.53;94411.03;4966712;28;7916;-57
2023/07/11 07:40:36;;;;;;;;;;;;;;;30.21;42.15;94409.72;4948702;28;9134;-57
2023/07/11 07:43:10;;;;;;;;;;;;;;;30.21;42.43;94415.28;4939501;28;7248;-57
2023/07/11 07:45:36;;;;;;;;;;;;;;;30.20;42.70;94413.03;4966158;28;9191;-57
2023/07/11 07:48:18;;;;;;;;;;;;;;;30.20;42.18;94424.13;4968213;28;9160;-57
2023/07/11 07:51:03;;;;;;;;;;;;;;;30.21;42.33;94420.81;4962135;28;7359;-57
2023/07/11 07:54:03;;;;;;;;;;;;;;;30.22;42.54;94416.78;4945754;28;7183;-57
2023/07/11 07:56:40;;;;;;;;;;;;;;;30.21;43.17;94409.00;4971020;28;9203;-57
2023/07/11 07:59:27;;;;;;;;;;;;;;;30.20;42.93;94413.03;4969188;28;7078;-57
2023/07/11 08:01:54;;;;;;;;;;;;;;;30.21;42.68;94414.53;4968414;28;7356;-57
2023/07/11 08:04:22;;;;;;;;;;;;;;;30.20;42.15;94408.25;4966698;28;7461;-57
2023/07/11 08:06:56;;;;;;;;;;;;;;;30.22;42.31;94407.69;4969349;28;9392;-57
2023/07/11 08:09:23;;;;;;;;;;;;;;;30.23;42.31;94409.91;4970325;28;8778;-57
2023/07/11 08:11:50;;;;;;;;;;;;;;;30.22;42.25;94408.44;4951717;28;7264;-57
2023/07/11 08:14:16;;;;;;;;;;;;;;;30.25;42.24;94409.41;4975124;28;9000;-65
2023/07/11 08:16:46;;;;;;;;;;;;;;;30.25;42.93;94401.81;4993735;28;7223;-65
2023/07/11 08:19:18;;;;;;;;;;;;;;;30.23;42.03;94398.81;4993274;28;7269;-65
2023/07/11 08:21:49;;;;;;;;;;;;;;;30.25;43.19;94401.81;4999843;28;7414;-65
2023/07/11 08:24:15;;;;;;;;;;;;;;;30.26;42.30;94400.53;4982903;28;7163;-65
2023/07/11 08:26:42;;;;;;;;;;;;;;;30.28;43.12;94403.50;4985622;28;9096;-65
2023/07/11 08:29:14;;;;;;;;;;;;;;;30.30;41.80;94400.16;4986549;28;7002;-65
2023/07/11 08:31:43;;;;;;;;;;;;;;;30.31;42.38;94396.91;4970371;28;9254;-65
2023/07/11 08:34:12;;;;;;;;;;;;;;;30.32;42.94;94400.44;4982922;28;8248;-65
2023/07/11 08:36:39;;;;;;;;;;;;;;;30.31;42.26;94385.06;4982412;28;7255;-65
2023/07/11 08:39:06;;;;;;;;;;;;;;;30.33;42.65;94391.56;4972818;28;7132;-65
2023/07/11 08:41:52;;;;;;;;;;;;;;;30.33;42.08;94388.78;4972813;28;9251;-65
2023/07/11 08:44:37;;;;;;;;;;;;;;;30.34;41.64;94390.25;4979617;28;7224;-65
2023/07/11 08:47:54;;;;;;;;;;;;;;;30.34;42.19;94390.25;4984981;28;6996;-65
2023/07/11 08:50:47;;;;;;;;;;;;;;;30.36;42.27;94392.50;4952371;28;7524;-65
2023/07/11 08:53:33;;;;;;;;;;;;;;;30.34;41.64;94387.47;4952536;28;8417;-65
2023/07/11 08:56:29;;;;;;;;;;;;;;;30.33;41.75;94382.47;4953262;28;7209;-65
2023/07/11 08:59:00;;;;;;;;;;;;;;;30.34;41.81;94381.94;4936850;28;7436;-65
2023/07/11 09:01:59;;;;;;;;;;;;;;;30.38;42.08;94379.56;4937010;28;7579;-64
2023/07/11 09:04:47;;;;;;;;;;;;;;;30.33;42.18;94379.69;4949033;28;7009;-65
2023/07/11 09:07:17;;;;;;;;;;;;;;;30.35;42.96;94377.13;4935597;28;7188;-65
2023/07/11 09:09:52;;;;;;;;;;;;;;;30.35;42.21;94369.56;4936168;28;9472;-65
2023/07/11 09:12:54;;;;;;;;;;;;;;;30.36;42.44;94371.03;4935711;28;7238;-65
2023/07/11 09:16:12;;;;;;;;;;;;;;;30.37;41.36;94366.97;4937948;28;7307;-65
2023/07/11 09:19:11;;;;;;;;;;;;;;;30.36;41.63;94362.69;4919175;29;8210;-65
2023/07/11 09:21:46;;;;;;;;;;;;;;;30.37;42.24;94357.91;4903808;29;7229;-65
2023/07/11 09:24:51;;;;;;;;;;;;;;;30.34;41.45;94348.63;4891140;29;7002;-62
2023/07/11 09:27:35;;;;;;;;;;;;;;;30.33;41.75;94355.47;4863143;29;8434;-62
2023/07/11 09:30:46;;;;;;;;;;;;;;;30.34;42.02;94354.19;4878508;29;9332;-63
2023/07/11 09:33:20;;;;;;;;;;;;;;;30.36;42.04;94354.38;4874249;29;7420;-62
2023/07/11 09:35:51;;;;;;;;;;;;;;;30.36;42.06;94351.59;4877470;29;9648;-62
2023/07/11 09:38:44;;;;;;;;;;;;;;;30.39;42.20;94344.97;4875460;29;7230;-62
2023/07/11 09:41:48;;;;;;;;;;;;;;;30.41;42.36;94350.72;4862644;29;9382;-62
2023/07/11 09:44:30;;;;;;;;;;;;;;;30.41;41.51;94347.94;4861932;29;8099;-62
2023/07/11 09:47:45;;;;;;;;;;;;;;;30.41;42.65;94341.66;4875899;29;7241;-62
2023/07/11 09:50:36;;;;;;;;;;;;;;;30.41;42.41;94334.06;4839997;29;7529;-62
2023/07/11 09:53:30;;;;;;;;;;;;;;;30.42;41.51;94338.34;4837843;29;8528;-63
2023/07/11 09:56:00;;;;;;;;;;;;;;;30.43;42.00;94331.50;4806825;29;6908;-62
2023/07/11 09:58:34;;;;;;;;;;;;;;;30.41;41.69;94328.53;4840140;29;9096;-62
2023/07/11 10:01:15;;;;;;;;;;;;;;;30.42;42.28;94327.25;4870213;29;8272;-62
2023/07/11 10:04:01;;;;;;;;;;;;;;;30.41;42.01;94317.41;4905510;29;9111;-62
2023/07/11 10:06:41;;;;;;;;;;;;;;;30.43;41.98;94325.94;4920915;28;7217;-62
2023/07/11 10:09:21;;;;;;;;;;;;;;;30.44;41.63;94326.69;4895656;29;6997;-62
2023/07/11 10:12:15;;;;;;;;;;;;;;;30.46;41.27;94324.09;4904477;29;7207;-62
2023/07/11 10:14:57;;;;;;;;;;;;;;;30.47;42.19;94325.63;4887557;29;7003;-62
2023/07/11 10:17:37;;;;;;;;;;;;;;;30.47;41.48;94315.22;4875966;29;7438;-62
2023/07/11 10:20:06;;;;;;;;;;;;;;;30.45;41.24;94320.59;4884971;29;7187;-62
2023/07/11 10:22:37;;;;;;;;;;;;;;;30.46;42.27;94313.75;4876193;29;9103;-62
2023/07/11 10:25:19;;;;;;;;;;;;;;;30.45;41.79;94312.25;4891567;29;9102;-62
2023/07/11 10:28:32;;;;;;;;;;;;;;;30.46;41.61;94313.00;4931929;28;9090;-62
2023/07/11 10:31:41;;;;;;;;;;;;;;;30.46;42.08;94305.44;4887142;29;9048;-62
2023/07/11 10:34:39;;;;;;;;;;;;;;;30.49;41.88;94300.81;4885483;29;7178;-61
2023/07/11 10:37:44;;;;;;;;;;;;;;;30.49;41.00;94295.28;4886881;29;7297;-62
2023/07/11 10:40:49;;;;;;;;;;;;;;;30.50;41.04;94297.50;4877192;29;7035;-62
2023/07/11 10:43:38;;;;;;;;;;;;;;;30.51;41.47;94289.91;4830222;29;8828;-62
2023/07/11 10:46:45;;;;;;;;;;;;;;;30.50;42.11;94289.16;4819801;29;9533;-62
2023/07/11 10:49:24;;;;;;;;;;;;;;;30.50;41.91;94286.41;4827183;29;8226;-62
2023/07/11 10:52:00;;;;;;;;;;;;;;;30.52;42.17;94289.38;4837128;29;7347;-62
2023/07/11 10:54:50;;;;;;;;;;;;;;;30.52;41.87;94283.06;4829121;29;7236;-62
2023/07/11 10:57:57;;;;;;;;;;;;;;;30.54;41.29;94278.44;4846123;29;6995;-62
2023/07/11 11:00:36;;;;;;;;;;;;;;;30.54;41.86;94274.94;4814117;29;7003;-62
2023/07/11 11:03:14;;;;;;;;;;;;;;;30.53;41.75;94268.66;4818843;29;7743;-62
2023/07/11 11:05:57;;;;;;;;;;;;;;;30.57;41.92;94262.00;4816055;29;6997;-62
2023/07/11 11:08:41;;;;;;;;;;;;;;;30.58;41.99;94260.72;4808291;29;6992;-62
2023/07/11 11:11:13;;;;;;;;;;;;;;;30.57;41.73;94262.75;4807019;29;7837;-62
2023/07/11 11:14:05;;;;;;;;;;;;;;;30.59;41.81;94251.09;4829979;29;7248;-62
2023/07/11 11:16:57;;;;;;;;;;;;;;;30.61;41.63;94254.06;4880872;28;7328;-62
2023/07/11 11:19:31;;;;;;;;;;;;;;;30.62;42.31;94245.19;4899245;29;9084;-62
2023/07/11 11:22:15;;;;;;;;;;;;;;;30.62;41.74;94239.66;4898091;29;7455;-62
2023/07/11 11:25:01;;;;;;;;;;;;;;;30.62;42.45;94241.66;4899517;29;7967;-62
2023/07/11 11:28:05;;;;;;;;;;;;;;;30.63;42.31;94232.03;4881996;29;7296;-62
2023/07/11 11:30:54;;;;;;;;;;;;;;;30.64;41.60;94228.72;4901984;29;9079;-62
2023/07/11 11:33:43;;;;;;;;;;;;;;;30.65;42.27;94219.09;4906284;29;8117;-62
2023/07/11 11:36:31;;;;;;;;;;;;;;;30.65;41.63;94223.91;4926285;29;6986;-62
2023/07/11 11:39:20;;;;;;;;;;;;;;;30.67;42.00;94222.06;4919496;29;9187;-62
2023/07/11 11:41:56;;;;;;;;;;;;;;;30.70;41.71;94220.97;4912291;29;8948;-62
2023/07/11 11:44:50;;;;;;;;;;;;;;;30.68;41.70;94217.25;4920400;29;7073;-65
2023/07/11 11:47:21;;;;;;;;;;;;;;;30.70;41.97;94220.22;4896415;29;7321;-65
2023/07/11 11:49:58;;;;;;;;;;;;;;;30.67;42.04;94215.78;4896238;29;9132;-65
2023/07/11 11:52:24;;;;;;;;;;;;;;;30.66;41.32;94206.72;4909615;29;7306;-65
2023/07/11 11:54:51;;;;;;;;;;;;;;;30.67;41.66;94205.41;4926218;29;8756;-65
2023/07/11 11:57:39;;;;;;;;;;;;;;;30.68;41.97;94204.13;4953810;28;9041;-65
2023/07/11 12:00:34;;;;;;;;;;;;;;;30.71;42.08;94202.28;4980026;28;9113;-65
2023/07/11 12:03:00;;;;;;;;;;;;;;;30.70;41.63;94198.78;4983056;28;9246;-65
2023/07/11 12:05:27;;;;;;;;;;;;;;;30.70;41.78;94193.22;4966479;28;7025;-65
2023/07/11 12:08:22;;;;;;;;;;;;;;;30.71;41.46;94183.56;4967141;28;7084;-65
2023/07/11 12:11:08;;;;;;;;;;;;;;;30.75;42.01;94191.56;4982476;28;7679;-65
2023/07/11 12:13:42;;;;;;;;;;;;;;;30.76;41.02;94193.03;4949956;28;8069;-65
2023/07/11 12:16:22;;;;;;;;;;;;;;;30.74;41.91;94187.28;4936637;28;9423;-65
2023/07/11 12:18:58;;;;;;;;;;;;;;;30.74;40.93;94187.28;4951018;28;7262;-65
2023/07/11 12:21:41;;;;;;;;;;;;;;;30.76;41.26;94184.69;4949085;28;7098;-65
2023/07/11 12:24:25;;;;;;;;;;;;;;;30.77;41.40;94188.97;4948662;28;7853;-65
2023/07/11 12:26:55;;;;;;;;;;;;;;;30.79;41.32;94189.16;4949388;28;7264;-65
2023/07/11 12:29:36;;;;;;;;;;;;;;;30.80;41.65;94185.13;4949730;28;6981;-65
2023/07/11 12:32:32;;;;;;;;;;;;;;;30.81;41.29;94181.03;4935024;28;7001;-66
2023/07/11 12:35:04;;;;;;;;;;;;;;;30.81;41.25;94172.69;4953246;28;7168;-65
2023/07/11 12:37:36;;;;;;;;;;;;;;;30.80;41.29;94169.16;4951761;28;7180;-65
2023/07/11 12:40:18;;;;;;;;;;;;;;;30.81;41.25;94158.81;4949520;28;7269;-64
2023/07/11 12:42:54;;;;;;;;;;;;;;;30.82;41.51;94161.03;4950276;28;7258;-64
2023/07/11 12:45:33;;;;;;;;;;;;;;;30.84;40.71;94163.28;4950800;28;7214;-64
2023/07/11 12:48:36;;;;;;;;;;;;;;;30.84;42.66;94161.22;4950127;28;7794;-66
2023/07/11 12:51:36;;;;;;;;;;;;;;;30.84;42.10;94160.50;4954074;28;9827;-65
2023/07/11 12:54:14;;;;;;;;;;;;;;;30.86;43.22;94149.56;4965100;28;7271;-65
2023/07/11 12:56:52;;;;;;;;;;;;;;;30.87;43.06;94160.16;4982977;28;8159;-65
2023/07/11 12:59:43;;;;;;;;;;;;;;;30.88;42.24;94153.31;5068394;28;6677;-63
2023/07/11 13:02:13;;;;;;;;;;;;;;;30.84;41.60;94147.34;5049472;28;7066;-63
2023/07/11 13:04:52;;;;;;;;;;;;;;;30.89;42.74;94145.72;5041713;28;7440;-63
2023/07/11 13:07:35;;;;;;;;;;;;;;;30.88;42.36;94142.22;5047835;28;7463;-64
2023/07/11 13:10:24;;;;;;;;;;;;;;;30.90;42.12;94131.28;5047535;28;6993;-64
2023/07/11 13:13:12;;;;;;;;;;;;;;;30.93;42.05;94132.22;5060936;28;7245;-64
2023/07/11 13:15:40;;;;;;;;;;;;;;;30.95;41.97;94129.63;5046774;28;7301;-63
2023/07/11 13:18:31;;;;;;;;;;;;;;;30.97;41.75;94129.81;5045063;28;7075;-64
2023/07/11 13:21:01;;;;;;;;;;;;;;;30.97;41.93;94127.03;5052885;28;7166;-63
2023/07/11 13:23:36;;;;;;;;;;;;;;;30.99;41.80;94124.44;5043468;28;7143;-64
2023/07/11 13:26:24;;;;;;;;;;;;;;;30.97;41.71;94127.75;5042378;28;7233;-64
2023/07/11 13:29:11;;;;;;;;;;;;;;;30.96;41.54;94129.06;5050525;28;7031;-64
2023/07/11 13:32:13;;;;;;;;;;;;;;;30.99;40.81;94132.78;5062936;28;7002;-64
2023/07/11 13:34:48;;;;;;;;;;;;;;;30.99;41.92;94135.56;5063072;28;7183;-64
2023/07/11 13:37:37;;;;;;;;;;;;;;;30.96;41.09;94129.06;5061682;28;6999;-64
2023/07/11 13:40:30;;;;;;;;;;;;;;;30.99;41.37;94130.00;5063119;28;7263;-64
2023/07/11 13:43:03;;;;;;;;;;;;;;;30.99;41.57;94119.63;5060735;28;9078;-64
2023/07/11 13:45:40;;;;;;;;;;;;;;;31.01;41.56;94119.84;5058844;28;7287;-63
2023/07/11 13:48:14;;;;;;;;;;;;;;;31.02;42.37;94117.78;5043284;28;7375;-64
2023/07/11 13:50:41;;;;;;;;;;;;;;;31.02;42.08;94112.97;5060361;28;7276;-63
2023/07/11 13:53:19;;;;;;;;;;;;;;;31.03;42.26;94108.91;5059715;28;7275;-63
2023/07/11 13:56:01;;;;;;;;;;;;;;;31.07;42.75;94108.53;5046336;28;8723;-63
2023/07/11 13:58:30;;;;;;;;;;;;;;;31.06;41.84;94109.81;5058292;28;7140;-63